createdAt,value
2019-05-23T00:00:00.083Z,1003.5
2019-05-23T00:01:00.774Z,1003.5
2019-05-23T00:02:01.452Z,1003.4
2019-05-23T00:03:02.138Z,1003.5
2019-05-23T00:04:02.820Z,1003.4
2019-05-23T00:05:03.512Z,1003.4
2019-05-23T00:06:04.197Z,1003.4
2019-05-23T00:07:04.890Z,1003.4
2019-05-23T00:08:05.583Z,1003.4
2019-05-23T00:09:06.263Z,1003.4
2019-05-23T00:10:06.946Z,1003.4
2019-05-23T00:11:07.635Z,1003.4
2019-05-23T00:12:08.319Z,1003.4
2019-05-23T00:13:09.002Z,1003.5
2019-05-23T00:14:09.706Z,1003.5
2019-05-23T00:15:10.375Z,1003.5
2019-05-23T00:16:11.064Z,1003.5
2019-05-23T00:17:11.753Z,1003.5
2019-05-23T00:18:12.446Z,1003.5
2019-05-23T00:19:13.163Z,1003.5
2019-05-23T00:20:13.817Z,1003.5
2019-05-23T00:21:14.508Z,1003.5
2019-05-23T00:22:15.190Z,1003.4
2019-05-23T00:23:15.878Z,1003.5
2019-05-23T00:24:16.561Z,1003.4
2019-05-23T00:25:17.254Z,1003.4
2019-05-23T00:26:17.937Z,1003.5
2019-05-23T00:27:18.622Z,1003.4
2019-05-23T00:28:19.314Z,1003.4
2019-05-23T00:29:20.002Z,1003.4
2019-05-23T00:30:20.684Z,1003.4
2019-05-23T00:31:21.371Z,1003.4
2019-05-23T00:32:22.063Z,1003.4
2019-05-23T00:33:22.741Z,1003.4
2019-05-23T00:34:23.422Z,1003.3
2019-05-23T00:35:24.118Z,1003.4
2019-05-23T00:36:24.841Z,1003.3
2019-05-23T00:37:25.471Z,1003.4
2019-05-23T00:38:26.160Z,1003.4
2019-05-23T00:39:26.840Z,1003.3
2019-05-23T00:40:27.542Z,1003.4
2019-05-23T00:41:28.208Z,1003.3
2019-05-23T00:42:28.899Z,1003.3
2019-05-23T00:43:29.585Z,1003.3
2019-05-23T00:44:30.257Z,1003.3
2019-05-23T00:45:30.947Z,1003.4
2019-05-23T00:46:31.639Z,1003.4
2019-05-23T00:47:32.320Z,1003.4
2019-05-23T00:48:33.009Z,1003.4
2019-05-23T00:49:33.695Z,1003.4
2019-05-23T00:50:34.381Z,1003.4
2019-05-23T00:51:35.075Z,1003.3
2019-05-23T00:52:35.803Z,1003.3
2019-05-23T00:53:36.507Z,1003.3
2019-05-23T00:54:37.160Z,1003.3
2019-05-23T00:55:37.856Z,1003.3
2019-05-23T00:56:38.541Z,1003.3
2019-05-23T00:57:39.215Z,1003.3
2019-05-23T00:58:39.903Z,1003.3
2019-05-23T00:59:40.588Z,1003.3
2019-05-23T01:00:41.282Z,1003.3
2019-05-23T01:01:41.960Z,1003.3
2019-05-23T01:02:42.651Z,1003.3
2019-05-23T01:03:43.349Z,1003.3
2019-05-23T01:04:44.040Z,1003.3
2019-05-23T01:05:44.719Z,1003.3
2019-05-23T01:06:45.410Z,1003.3
2019-05-23T01:07:46.096Z,1003.3
2019-05-23T01:08:46.806Z,1003.3
2019-05-23T01:09:47.470Z,1003.3
2019-05-23T01:10:48.161Z,1003.3
2019-05-23T01:11:48.845Z,1003.3
2019-05-23T01:12:49.534Z,1003.3
2019-05-23T01:13:50.219Z,1003.3
2019-05-23T01:14:50.901Z,1003.3
2019-05-23T01:15:51.587Z,1003.3
2019-05-23T01:16:52.271Z,1003.3
2019-05-23T01:17:52.964Z,1003.3
2019-05-23T01:18:53.656Z,1003.3
2019-05-23T01:19:54.346Z,1003.3
2019-05-23T01:20:55.041Z,1003.3
2019-05-23T01:21:55.724Z,1003.3
2019-05-23T01:22:56.417Z,1003.3
2019-05-23T01:23:57.137Z,1003.3
2019-05-23T01:24:57.775Z,1003.3
2019-05-23T01:25:58.482Z,1003.3
2019-05-23T01:26:59.135Z,1003.3
2019-05-23T01:27:59.813Z,1003.3
2019-05-23T01:29:00.505Z,1003.3
2019-05-23T01:30:01.244Z,1003.3
2019-05-23T01:31:01.862Z,1003.3
2019-05-23T01:32:02.550Z,1003.3
2019-05-23T01:33:03.252Z,1003.2
2019-05-23T01:34:03.935Z,1003.3
2019-05-23T01:35:04.611Z,1003.3
2019-05-23T01:36:05.305Z,1003.2
2019-05-23T01:37:05.987Z,1003.2
2019-05-23T01:38:06.672Z,1003.2
2019-05-23T01:39:07.356Z,1003.3
2019-05-23T01:40:08.065Z,1003.3
2019-05-23T01:41:08.748Z,1003.3
2019-05-23T01:42:09.490Z,1003.3
2019-05-23T01:43:10.125Z,1003.3
2019-05-23T01:44:10.785Z,1003.2
2019-05-23T01:45:11.487Z,1003.3
2019-05-23T01:46:12.158Z,1003.3
2019-05-23T01:47:12.845Z,1003.2
2019-05-23T01:48:13.527Z,1003.2
2019-05-23T01:49:14.226Z,1003.3
2019-05-23T01:50:14.906Z,1003.3
2019-05-23T01:51:15.596Z,1003.2
2019-05-23T01:52:16.269Z,1003.3
2019-05-23T01:53:16.954Z,1003.3
2019-05-23T01:54:17.639Z,1003.2
2019-05-23T01:55:18.339Z,1003.3
2019-05-23T01:56:19.015Z,1003.3
2019-05-23T01:57:19.736Z,1003.3
2019-05-23T01:58:20.378Z,1003.3
2019-05-23T01:59:21.058Z,1003.3
2019-05-23T02:00:21.737Z,1003.3
2019-05-23T02:01:22.433Z,1003.3
2019-05-23T02:02:23.113Z,1003.3
2019-05-23T02:03:23.818Z,1003.3
2019-05-23T02:04:24.481Z,1003.3
2019-05-23T02:05:25.165Z,1003.3
2019-05-23T02:06:25.859Z,1003.3
2019-05-23T02:07:26.545Z,1003.3
2019-05-23T02:08:27.226Z,1003.3
2019-05-23T02:09:27.925Z,1003.3
2019-05-23T02:10:28.620Z,1003.3
2019-05-23T02:11:29.306Z,1003.3
2019-05-23T02:12:29.977Z,1003.3
2019-05-23T02:13:30.655Z,1003.3
2019-05-23T02:14:31.340Z,1003.3
2019-05-23T02:15:32.039Z,1003.3
2019-05-23T02:16:32.721Z,1003.3
2019-05-23T02:17:33.406Z,1003.3
2019-05-23T02:18:34.089Z,1003.3
2019-05-23T02:19:34.771Z,1003.3
2019-05-23T02:20:35.526Z,1003.3
2019-05-23T02:21:36.165Z,1003.3
2019-05-23T02:22:36.853Z,1003.3
2019-05-23T02:23:37.533Z,1003.3
2019-05-23T02:24:38.213Z,1003.4
2019-05-23T02:25:38.895Z,1003.4
2019-05-23T02:26:39.577Z,1003.4
2019-05-23T02:27:40.271Z,1003.4
2019-05-23T02:28:40.958Z,1003.4
2019-05-23T02:29:41.631Z,1003.4
2019-05-23T02:30:42.341Z,1003.3
2019-05-23T02:31:43.009Z,1003.4
2019-05-23T02:32:43.691Z,1003.4
2019-05-23T02:33:44.376Z,1003.4
2019-05-23T02:34:45.062Z,1003.3
2019-05-23T02:35:45.741Z,1003.4
2019-05-23T02:36:46.438Z,1003.4
2019-05-23T02:37:47.117Z,1003.3
2019-05-23T02:38:47.805Z,1003.3
2019-05-23T02:39:48.479Z,1003.3
2019-05-23T02:40:49.163Z,1003.3
2019-05-23T02:41:49.850Z,1003.3
2019-05-23T02:42:50.534Z,1003.3
2019-05-23T02:43:51.219Z,1003.3
2019-05-23T02:44:51.898Z,1003.3
2019-05-23T02:45:52.593Z,1003.3
2019-05-23T02:46:53.267Z,1003.3
2019-05-23T02:47:53.951Z,1003.3
2019-05-23T02:48:54.641Z,1003.3
2019-05-23T02:49:55.347Z,1003.2
2019-05-23T02:50:56.027Z,1003.2
2019-05-23T02:51:56.752Z,1003.2
2019-05-23T02:52:57.401Z,1003.3
2019-05-23T02:53:58.084Z,1003.2
2019-05-23T02:54:58.770Z,1003.2
2019-05-23T02:55:59.429Z,1003.2
2019-05-23T02:57:00.107Z,1003.2
2019-05-23T02:58:00.793Z,1003.2
2019-05-23T02:59:01.505Z,1003.2
2019-05-23T03:00:02.170Z,1003.2
2019-05-23T03:01:02.861Z,1003.2
2019-05-23T03:02:03.573Z,1003.2
2019-05-23T03:03:04.248Z,1003.2
2019-05-23T03:04:05.046Z,1003.2
2019-05-23T03:05:05.606Z,1003.2
2019-05-23T03:06:06.309Z,1003.2
2019-05-23T03:07:06.983Z,1003.2
2019-05-23T03:08:07.669Z,1003.2
2019-05-23T03:09:08.362Z,1003.1
2019-05-23T03:10:09.049Z,1003.1
2019-05-23T03:11:09.734Z,1003.2
2019-05-23T03:12:10.420Z,1003.2
2019-05-23T03:13:11.141Z,1003.2
2019-05-23T03:14:11.812Z,1003.1
2019-05-23T03:15:12.505Z,1003.2
2019-05-23T03:16:13.185Z,1003.2
2019-05-23T03:17:13.873Z,1003.2
2019-05-23T03:18:14.560Z,1003.2
2019-05-23T03:19:15.244Z,1003.1
2019-05-23T03:20:15.937Z,1003.2
2019-05-23T03:21:16.634Z,1003.2
2019-05-23T03:22:17.322Z,1003.2
2019-05-23T03:23:18.018Z,1003.1
2019-05-23T03:24:18.695Z,1003.1
2019-05-23T03:25:19.386Z,1003.1
2019-05-23T03:26:20.075Z,1003.1
2019-05-23T03:27:20.767Z,1003.1
2019-05-23T03:28:21.445Z,1003.1
2019-05-23T03:29:22.140Z,1003.1
2019-05-23T03:30:22.823Z,1003.1
2019-05-23T03:31:29.631Z,1003.1
2019-05-23T03:32:24.204Z,1003.1
2019-05-23T03:33:24.894Z,1003.1
2019-05-23T03:34:25.578Z,1003.1
2019-05-23T03:35:26.261Z,1003.1
2019-05-23T03:36:26.944Z,1003.1
2019-05-23T03:37:27.632Z,1003.1
2019-05-23T03:38:28.316Z,1003.2
2019-05-23T03:39:29.005Z,1003.1
2019-05-23T03:40:29.688Z,1003.1
2019-05-23T03:41:30.401Z,1003.1
2019-05-23T03:42:31.062Z,1003.1
2019-05-23T03:43:31.757Z,1003.1
2019-05-23T03:44:32.436Z,1003.1
2019-05-23T03:45:33.138Z,1003.1
2019-05-23T03:46:33.834Z,1003.1
2019-05-23T03:47:34.506Z,1003.1
2019-05-23T03:48:35.193Z,1003.2
2019-05-23T03:49:35.886Z,1003.2
2019-05-23T03:50:36.581Z,1003.2
2019-05-23T03:51:37.312Z,1003.2
2019-05-23T03:52:37.977Z,1003.2
2019-05-23T03:53:38.664Z,1003.2
2019-05-23T03:54:39.353Z,1003.2
2019-05-23T03:55:40.039Z,1003.2
2019-05-23T03:56:40.721Z,1003.2
2019-05-23T03:57:41.418Z,1003.2
2019-05-23T03:58:42.104Z,1003.2
2019-05-23T03:59:42.803Z,1003.2
2019-05-23T04:00:43.525Z,1003.2
2019-05-23T04:01:48.264Z,1003.2
2019-05-23T04:02:44.886Z,1003.1
2019-05-23T04:03:45.576Z,1003.1
2019-05-23T04:04:46.257Z,1003.1
2019-05-23T04:05:46.983Z,1003.1
2019-05-23T04:06:47.684Z,1003.1
2019-05-23T04:07:48.364Z,1003.1
2019-05-23T04:08:49.048Z,1003.1
2019-05-23T04:09:49.735Z,1003.1
2019-05-23T04:10:52.050Z,1003.1
2019-05-23T04:11:51.121Z,1003.1
2019-05-23T04:12:51.817Z,1003.0
2019-05-23T04:13:52.500Z,1003.0
2019-05-23T04:14:53.190Z,1003.1
2019-05-23T04:15:53.875Z,1003.1
2019-05-23T04:16:54.602Z,1003.1
2019-05-23T04:17:55.333Z,1003.1
2019-05-23T04:18:56.245Z,1003.1
2019-05-23T04:19:56.939Z,1003.1
2019-05-23T04:20:57.619Z,1003.0
2019-05-23T04:21:58.768Z,1003.1
2019-05-23T04:22:59.450Z,1003.1
2019-05-23T04:24:00.134Z,1003.1
2019-05-23T04:25:02.344Z,1003.1
2019-05-23T04:26:01.526Z,1003.1
2019-05-23T04:27:02.230Z,1003.1
2019-05-23T04:28:02.909Z,1003.1
2019-05-23T04:29:03.598Z,1003.1
2019-05-23T04:30:04.290Z,1003.1
2019-05-23T04:31:05.101Z,1003.1
2019-05-23T04:32:08.680Z,1003.1
2019-05-23T04:33:06.370Z,1003.1
2019-05-23T04:34:07.059Z,1003.1
2019-05-23T04:35:07.744Z,1003.1
2019-05-23T04:36:08.434Z,1003.1
2019-05-23T04:37:09.131Z,1003.1
2019-05-23T04:38:09.824Z,1003.1
2019-05-23T04:39:10.505Z,1003.1
2019-05-23T04:40:11.195Z,1003.1
2019-05-23T04:41:11.882Z,1003.0
2019-05-23T04:42:12.593Z,1003.1
2019-05-23T04:43:13.278Z,1003.0
2019-05-23T04:44:13.967Z,1003.1
2019-05-23T04:45:14.660Z,1003.1
2019-05-23T04:46:15.367Z,1003.0
2019-05-23T04:47:16.034Z,1003.0
2019-05-23T04:48:16.734Z,1003.0
2019-05-23T04:49:17.414Z,1003.1
2019-05-23T04:50:18.124Z,1003.0
2019-05-23T04:51:18.792Z,1003.1
2019-05-23T04:52:19.477Z,1003.1
2019-05-23T04:53:20.167Z,1003.1
2019-05-23T04:54:20.858Z,1003.1
2019-05-23T04:55:21.553Z,1003.1
2019-05-23T04:56:22.234Z,1003.1
2019-05-23T04:57:22.926Z,1003.2
2019-05-23T04:58:23.614Z,1003.1
2019-05-23T04:59:24.318Z,1003.1
2019-05-23T05:00:25.021Z,1003.1
2019-05-23T05:01:25.698Z,1003.1
2019-05-23T05:02:27.234Z,1003.1
2019-05-23T05:03:27.082Z,1003.2
2019-05-23T05:04:27.773Z,1003.1
2019-05-23T05:05:28.457Z,1003.2
2019-05-23T05:06:29.144Z,1003.2
2019-05-23T05:07:29.803Z,1003.2
2019-05-23T05:08:30.487Z,1003.2
2019-05-23T05:09:32.146Z,1003.2
2019-05-23T05:10:32.039Z,1003.2
2019-05-23T05:11:32.724Z,1003.2
2019-05-23T05:12:33.419Z,1003.3
2019-05-23T05:13:34.108Z,1003.3
2019-05-23T05:14:34.801Z,1003.3
2019-05-23T05:15:35.490Z,1003.2
2019-05-23T05:16:36.178Z,1003.2
2019-05-23T05:17:36.923Z,1003.3
2019-05-23T05:18:37.609Z,1003.2
2019-05-23T05:19:38.275Z,1003.2
2019-05-23T05:20:38.975Z,1003.3
2019-05-23T05:21:39.654Z,1003.3
2019-05-23T05:22:40.358Z,1003.3
2019-05-23T05:23:41.071Z,1003.3
2019-05-23T05:24:41.736Z,1003.3
2019-05-23T05:25:42.425Z,1003.3
2019-05-23T05:26:43.118Z,1003.3
2019-05-23T05:27:43.805Z,1003.3
2019-05-23T05:28:44.497Z,1003.3
2019-05-23T05:29:45.187Z,1003.3
2019-05-23T05:30:45.880Z,1003.3
2019-05-23T05:31:46.571Z,1003.3
2019-05-23T05:32:47.266Z,1003.3
2019-05-23T05:33:47.957Z,1003.3
2019-05-23T05:34:48.644Z,1003.3
2019-05-23T05:35:49.337Z,1003.3
2019-05-23T05:36:50.028Z,1003.3
2019-05-23T05:37:50.735Z,1003.3
2019-05-23T05:38:51.416Z,1003.3
2019-05-23T05:39:52.101Z,1003.3
2019-05-23T05:40:52.798Z,1003.4
2019-05-23T05:41:53.482Z,1003.3
2019-05-23T05:42:54.179Z,1003.4
2019-05-23T05:43:54.870Z,1003.3
2019-05-23T05:44:55.602Z,1003.4
2019-05-23T05:45:56.268Z,1003.4
2019-05-23T05:46:56.964Z,1003.4
2019-05-23T05:47:57.661Z,1003.4
2019-05-23T05:48:58.350Z,1003.3
2019-05-23T05:49:59.039Z,1003.4
2019-05-23T05:50:59.731Z,1003.4
2019-05-23T05:52:00.433Z,1003.4
2019-05-23T05:53:01.149Z,1003.5
2019-05-23T05:54:01.828Z,1003.5
2019-05-23T05:55:02.505Z,1003.5
2019-05-23T05:56:03.230Z,1003.5
2019-05-23T05:57:03.899Z,1003.4
2019-05-23T05:58:04.593Z,1003.4
2019-05-23T05:59:05.291Z,1003.5
2019-05-23T06:00:05.985Z,1003.4
2019-05-23T06:01:06.690Z,1003.5
2019-05-23T06:02:07.385Z,1003.5
2019-05-23T06:03:08.076Z,1003.5
2019-05-23T06:04:08.774Z,1003.4
2019-05-23T06:05:09.460Z,1003.5
2019-05-23T06:06:10.164Z,1003.5
2019-05-23T06:07:10.844Z,1003.5
2019-05-23T06:08:11.544Z,1003.5
2019-05-23T06:09:12.247Z,1003.5
2019-05-23T06:10:12.940Z,1003.5
2019-05-23T06:11:13.636Z,1003.5
2019-05-23T06:12:14.332Z,1003.5
2019-05-23T06:13:15.057Z,1003.5
2019-05-23T06:14:15.742Z,1003.5
2019-05-23T06:15:16.438Z,1003.5
2019-05-23T06:16:17.136Z,1003.5
2019-05-23T06:17:17.827Z,1003.4
2019-05-23T06:18:18.521Z,1003.5
2019-05-23T06:19:19.213Z,1003.5
2019-05-23T06:20:19.925Z,1003.5
2019-05-23T06:21:20.610Z,1003.5
2019-05-23T06:22:21.310Z,1003.5
2019-05-23T06:23:22.003Z,1003.5
2019-05-23T06:24:39.966Z,1003.5
2019-05-23T06:25:23.394Z,1003.5
2019-05-23T06:26:24.091Z,1003.5
2019-05-23T06:27:24.784Z,1003.6
2019-05-23T06:28:25.485Z,1003.6
2019-05-23T06:29:26.181Z,1003.5
2019-05-23T06:30:26.887Z,1003.6
2019-05-23T06:31:27.584Z,1003.6
2019-05-23T06:32:28.279Z,1003.6
2019-05-23T06:33:28.972Z,1003.5
2019-05-23T06:34:29.671Z,1003.5
2019-05-23T06:35:30.363Z,1003.5
2019-05-23T06:36:31.057Z,1003.5
2019-05-23T06:37:34.305Z,1003.5
2019-05-23T06:38:32.440Z,1003.5
2019-05-23T06:39:33.137Z,1003.5
2019-05-23T06:40:33.838Z,1003.5
2019-05-23T06:41:34.529Z,1003.5
2019-05-23T06:42:35.234Z,1003.5
2019-05-23T06:43:35.923Z,1003.5
2019-05-23T06:44:36.620Z,1003.5
2019-05-23T06:45:37.314Z,1003.5
2019-05-23T06:46:38.062Z,1003.5
2019-05-23T06:47:38.722Z,1003.5
2019-05-23T06:48:39.417Z,1003.5
2019-05-23T06:49:40.079Z,1003.5
2019-05-23T06:50:40.780Z,1003.5
2019-05-23T06:51:41.476Z,1003.5
2019-05-23T06:52:42.180Z,1003.5
2019-05-23T06:53:42.874Z,1003.5
2019-05-23T06:54:43.577Z,1003.5
2019-05-23T06:55:44.286Z,1003.5
2019-05-23T06:56:44.982Z,1003.4
2019-05-23T06:57:45.688Z,1003.5
2019-05-23T06:58:46.418Z,1003.5
2019-05-23T06:59:47.076Z,1003.5
2019-05-23T07:00:47.829Z,1003.5
2019-05-23T07:01:48.471Z,1003.5
2019-05-23T07:02:49.169Z,1003.5
2019-05-23T07:03:49.871Z,1003.5
2019-05-23T07:04:50.567Z,1003.5
2019-05-23T07:05:51.238Z,1003.5
2019-05-23T07:06:51.937Z,1003.5
2019-05-23T07:07:52.655Z,1003.5
2019-05-23T07:08:53.346Z,1003.5
2019-05-23T07:09:54.038Z,1003.5
2019-05-23T07:10:54.747Z,1003.5
2019-05-23T07:11:55.442Z,1003.5
2019-05-23T07:12:56.147Z,1003.5
2019-05-23T07:13:56.848Z,1003.5
2019-05-23T07:14:57.548Z,1003.6
2019-05-23T07:15:58.253Z,1003.5
2019-05-23T07:16:58.957Z,1003.5
2019-05-23T07:17:59.647Z,1003.5
2019-05-23T07:19:00.356Z,1003.5
2019-05-23T07:20:01.063Z,1003.5
2019-05-23T07:21:01.758Z,1003.5
2019-05-23T07:22:02.466Z,1003.5
2019-05-23T07:23:03.158Z,1003.5
2019-05-23T07:24:03.861Z,1003.5
2019-05-23T07:25:04.559Z,1003.5
2019-05-23T07:26:05.255Z,1003.6
2019-05-23T07:27:05.982Z,1003.6
2019-05-23T07:28:06.661Z,1003.6
2019-05-23T07:29:07.361Z,1003.6
2019-05-23T07:30:08.056Z,1003.6
2019-05-23T07:31:08.761Z,1003.6
2019-05-23T07:32:09.467Z,1003.6
2019-05-23T07:33:10.156Z,1003.6
2019-05-23T07:34:10.856Z,1003.6
2019-05-23T07:35:11.554Z,1003.6
2019-05-23T07:36:12.261Z,1003.6
2019-05-23T07:37:12.968Z,1003.6
2019-05-23T07:38:13.682Z,1003.6
2019-05-23T07:39:14.382Z,1003.6
2019-05-23T07:40:15.078Z,1003.6
2019-05-23T07:41:15.777Z,1003.6
2019-05-23T07:42:16.469Z,1003.6
2019-05-23T07:43:17.178Z,1003.6
2019-05-23T07:44:17.852Z,1003.6
2019-05-23T07:45:18.548Z,1003.6
2019-05-23T07:46:19.248Z,1003.6
2019-05-23T07:47:20.017Z,1003.7
2019-05-23T07:48:20.654Z,1003.6
2019-05-23T07:49:21.354Z,1003.6
2019-05-23T07:50:22.058Z,1003.6
2019-05-23T07:51:22.742Z,1003.5
2019-05-23T07:52:23.457Z,1003.6
2019-05-23T07:53:24.141Z,1003.5
2019-05-23T07:54:24.842Z,1003.5
2019-05-23T07:55:25.546Z,1003.6
2019-05-23T07:56:26.235Z,1003.5
2019-05-23T07:57:26.943Z,1003.5
2019-05-23T07:58:27.637Z,1003.6
2019-05-23T07:59:28.349Z,1003.5
2019-05-23T08:00:29.053Z,1003.5
2019-05-23T08:01:29.748Z,1003.5
2019-05-23T08:02:30.457Z,1003.5
2019-05-23T08:03:31.161Z,1003.5
2019-05-23T08:04:31.860Z,1003.5
2019-05-23T08:05:32.572Z,1003.5
2019-05-23T08:06:33.279Z,1003.5
2019-05-23T08:07:33.975Z,1003.5
2019-05-23T08:08:34.678Z,1003.5
2019-05-23T08:09:35.370Z,1003.6
2019-05-23T08:10:36.072Z,1003.5
2019-05-23T08:11:36.773Z,1003.5
2019-05-23T08:12:37.486Z,1003.5
2019-05-23T08:13:38.174Z,1003.5
2019-05-23T08:14:38.877Z,1003.5
2019-05-23T08:15:39.580Z,1003.5
2019-05-23T08:16:40.291Z,1003.5
2019-05-23T08:17:40.983Z,1003.5
2019-05-23T08:18:41.684Z,1003.6
2019-05-23T08:19:49.610Z,1003.5
2019-05-23T08:20:43.082Z,1003.6
2019-05-23T08:21:43.784Z,1003.5
2019-05-23T08:22:44.479Z,1003.5
2019-05-23T08:23:45.184Z,1003.5
2019-05-23T08:24:45.900Z,1003.5
2019-05-23T08:25:46.585Z,1003.5
2019-05-23T08:26:47.309Z,1003.5
2019-05-23T08:27:48.008Z,1003.5
2019-05-23T08:29:12.854Z,1003.6
2019-05-23T08:29:49.412Z,1003.6
2019-05-23T08:30:50.125Z,1003.5
2019-05-23T08:31:50.825Z,1003.5
2019-05-23T08:32:51.531Z,1003.5
2019-05-23T08:33:52.239Z,1003.5
2019-05-23T08:34:52.935Z,1003.5
2019-05-23T08:35:53.641Z,1003.5
2019-05-23T08:36:54.382Z,1003.5
2019-05-23T08:37:55.056Z,1003.5
2019-05-23T08:38:55.729Z,1003.5
2019-05-23T08:39:56.442Z,1003.5
2019-05-23T08:40:57.144Z,1003.5
2019-05-23T08:41:57.862Z,1003.5
2019-05-23T08:42:58.556Z,1003.5
2019-05-23T08:43:59.258Z,1003.6
2019-05-23T08:44:59.953Z,1003.6
2019-05-23T08:46:00.667Z,1003.6
2019-05-23T08:47:01.363Z,1003.6
2019-05-23T08:48:02.074Z,1003.6
2019-05-23T08:49:02.767Z,1003.5
2019-05-23T08:50:03.467Z,1003.5
2019-05-23T08:51:04.187Z,1003.6
2019-05-23T08:52:04.875Z,1003.5
2019-05-23T08:53:05.581Z,1003.6
2019-05-23T08:54:06.274Z,1003.5
2019-05-23T08:55:06.980Z,1003.5
2019-05-23T08:56:18.525Z,1003.5
2019-05-23T08:57:08.388Z,1003.5
2019-05-23T08:58:09.121Z,1003.5
2019-05-23T08:59:09.784Z,1003.5
2019-05-23T09:00:10.457Z,1003.5
2019-05-23T09:01:11.127Z,1003.5
2019-05-23T09:02:11.858Z,1003.5
2019-05-23T09:03:12.536Z,1003.5
2019-05-23T09:04:13.254Z,1003.5
2019-05-23T09:05:13.962Z,1003.5
2019-05-23T09:06:14.657Z,1003.5
2019-05-23T09:07:15.353Z,1003.5
2019-05-23T09:08:17.182Z,1003.5
2019-05-23T09:09:29.133Z,1003.4
2019-05-23T09:10:17.462Z,1003.4
2019-05-23T09:11:18.168Z,1003.4
2019-05-23T09:12:18.866Z,1003.4
2019-05-23T09:13:19.570Z,1003.4
2019-05-23T09:14:20.271Z,1003.4
2019-05-23T09:15:20.980Z,1003.4
2019-05-23T09:16:21.677Z,1003.4
2019-05-23T09:17:22.384Z,1003.4
2019-05-23T09:18:23.080Z,1003.4
2019-05-23T09:19:23.787Z,1003.4
2019-05-23T09:20:24.478Z,1003.3
2019-05-23T09:21:25.185Z,1003.4
2019-05-23T09:22:25.892Z,1003.3
2019-05-23T09:23:26.623Z,1003.3
2019-05-23T09:24:27.307Z,1003.3
2019-05-23T09:25:28.013Z,1003.2
2019-05-23T09:26:28.717Z,1003.3
2019-05-23T09:27:29.423Z,1003.3
2019-05-23T09:28:30.121Z,1003.3
2019-05-23T09:29:30.825Z,1003.3
2019-05-23T09:30:31.526Z,1003.3
2019-05-23T09:31:32.237Z,1003.3
2019-05-23T09:32:32.935Z,1003.3
2019-05-23T09:33:33.645Z,1003.3
2019-05-23T09:34:34.356Z,1003.3
2019-05-23T09:35:35.061Z,1003.3
2019-05-23T09:36:35.768Z,1003.3
2019-05-23T09:37:36.465Z,1003.3
2019-05-23T09:38:37.167Z,1003.3
2019-05-23T09:39:37.861Z,1003.3
2019-05-23T09:40:38.551Z,1003.3
2019-05-23T09:41:39.238Z,1003.3
2019-05-23T09:42:39.941Z,1003.2
2019-05-23T09:43:40.656Z,1003.3
2019-05-23T09:44:41.344Z,1003.3
2019-05-23T09:45:42.045Z,1003.2
2019-05-23T09:46:42.751Z,1003.3
2019-05-23T09:47:43.525Z,1003.2
2019-05-23T09:48:44.156Z,1003.3
2019-05-23T09:49:53.669Z,1003.3
2019-05-23T09:50:45.558Z,1003.2
2019-05-23T09:51:47.774Z,1003.3
2019-05-23T09:52:47.027Z,1003.2
2019-05-23T09:53:47.958Z,1003.2
2019-05-23T09:54:48.441Z,1003.2
2019-05-23T09:55:49.130Z,1003.2
2019-05-23T09:56:49.830Z,1003.2
2019-05-23T09:57:50.646Z,1003.2
2019-05-23T09:58:51.253Z,1003.1
2019-05-23T09:59:52.038Z,1003.1
2019-05-23T10:00:52.642Z,1003.1
2019-05-23T10:01:53.341Z,1003.1
2019-05-23T10:02:54.038Z,1003.2
2019-05-23T10:03:54.744Z,1003.1
2019-05-23T10:04:55.469Z,1003.0
2019-05-23T10:05:56.152Z,1003.1
2019-05-23T10:06:56.863Z,1003.1
2019-05-23T10:07:57.576Z,1003.1
2019-05-23T10:08:58.272Z,1003.1
2019-05-23T10:09:58.997Z,1003.1
2019-05-23T10:10:59.709Z,1003.0
2019-05-23T10:12:00.377Z,1003.0
2019-05-23T10:13:01.080Z,1003.1
2019-05-23T10:14:01.797Z,1003.0
2019-05-23T10:15:02.507Z,1003.0
2019-05-23T10:16:03.421Z,1003.0
2019-05-23T10:17:03.875Z,1003.0
2019-05-23T10:18:04.585Z,1003.0
2019-05-23T10:19:05.274Z,1003.0
2019-05-23T10:20:05.996Z,1003.1
2019-05-23T10:21:06.700Z,1003.1
2019-05-23T10:22:07.476Z,1003.1
2019-05-23T10:23:08.117Z,1003.1
2019-05-23T10:24:08.836Z,1003.1
2019-05-23T10:25:09.547Z,1003.0
2019-05-23T10:26:10.247Z,1003.0
2019-05-23T10:27:10.952Z,1003.0
2019-05-23T10:28:11.665Z,1003.0
2019-05-23T10:29:12.359Z,1003.0
2019-05-23T10:30:13.059Z,1003.0
2019-05-23T10:31:13.759Z,1003.0
2019-05-23T10:32:14.462Z,1002.9
2019-05-23T10:33:15.161Z,1003.0
2019-05-23T10:34:15.866Z,1003.0
2019-05-23T10:35:16.571Z,1002.9
2019-05-23T10:36:17.311Z,1003.0
2019-05-23T10:37:17.980Z,1002.9
2019-05-23T10:38:18.678Z,1002.9
2019-05-23T10:39:19.382Z,1002.9
2019-05-23T10:40:20.082Z,1002.9
2019-05-23T10:41:20.789Z,1002.9
2019-05-23T10:42:21.503Z,1002.9
2019-05-23T10:43:22.198Z,1002.8
2019-05-23T10:44:22.907Z,1002.8
2019-05-23T10:45:23.613Z,1002.8
2019-05-23T10:46:24.318Z,1002.8
2019-05-23T10:47:25.023Z,1002.8
2019-05-23T10:48:25.729Z,1002.8
2019-05-23T10:49:26.464Z,1002.8
2019-05-23T10:50:41.987Z,1002.8
2019-05-23T10:51:27.856Z,1002.8
2019-05-23T10:52:28.539Z,1002.7
2019-05-23T10:53:29.246Z,1002.7
2019-05-23T10:54:29.944Z,1002.7
2019-05-23T10:55:30.644Z,1002.7
2019-05-23T10:56:31.352Z,1002.7
2019-05-23T10:57:32.055Z,1002.7
2019-05-23T10:58:32.751Z,1002.7
2019-05-23T10:59:33.539Z,1002.7
2019-05-23T11:00:34.251Z,1002.7
2019-05-23T11:01:34.946Z,1002.7
2019-05-23T11:02:35.648Z,1002.7
2019-05-23T11:03:36.358Z,1002.7
2019-05-23T11:04:37.062Z,1002.6
2019-05-23T11:05:37.771Z,1002.6
2019-05-23T11:06:38.480Z,1002.6
2019-05-23T11:07:39.171Z,1002.7
2019-05-23T11:08:39.899Z,1002.6
2019-05-23T11:09:40.619Z,1002.7
2019-05-23T11:10:41.300Z,1002.6
2019-05-23T11:11:42.024Z,1002.6
2019-05-23T11:12:42.710Z,1002.6
2019-05-23T11:13:43.444Z,1002.6
2019-05-23T11:14:44.112Z,1002.6
2019-05-23T11:15:44.827Z,1002.6
2019-05-23T11:16:45.526Z,1002.6
2019-05-23T11:17:46.240Z,1002.5
2019-05-23T11:18:46.973Z,1002.5
2019-05-23T11:19:47.650Z,1002.6
2019-05-23T11:20:48.359Z,1002.6
2019-05-23T11:21:49.064Z,1002.5
2019-05-23T11:22:49.768Z,1002.5
2019-05-23T11:23:50.473Z,1002.5
2019-05-23T11:24:51.176Z,1002.5
2019-05-23T11:25:52.022Z,1002.5
2019-05-23T11:26:52.588Z,1002.5
2019-05-23T11:27:53.289Z,1002.5
2019-05-23T11:28:54.000Z,1002.5
2019-05-23T11:29:54.673Z,1002.5
2019-05-23T11:30:55.378Z,1002.5
2019-05-23T11:31:56.083Z,1002.5
2019-05-23T11:32:56.792Z,1002.5
2019-05-23T11:33:57.493Z,1002.5
2019-05-23T11:34:58.200Z,1002.5
2019-05-23T11:35:58.905Z,1002.5
2019-05-23T11:36:59.607Z,1002.5
2019-05-23T11:38:00.311Z,1002.4
2019-05-23T11:39:01.015Z,1002.4
2019-05-23T11:40:01.989Z,1002.3
2019-05-23T11:41:02.458Z,1002.4
2019-05-23T11:42:03.159Z,1002.4
2019-05-23T11:43:03.864Z,1002.4
2019-05-23T11:44:04.573Z,1002.3
2019-05-23T11:45:05.280Z,1002.4
2019-05-23T11:46:06.103Z,1002.3
2019-05-23T11:47:06.700Z,1002.3
2019-05-23T11:48:07.403Z,1002.4
2019-05-23T11:49:08.106Z,1002.3
2019-05-23T11:50:08.800Z,1002.3
2019-05-23T11:51:09.511Z,1002.3
2019-05-23T11:52:10.227Z,1002.3
2019-05-23T11:53:10.921Z,1002.3
2019-05-23T11:54:11.639Z,1002.3
2019-05-23T11:55:12.334Z,1002.3
2019-05-23T11:56:13.076Z,1002.3
2019-05-23T11:57:13.741Z,1002.3
2019-05-23T11:58:14.445Z,1002.3
2019-05-23T11:59:15.147Z,1002.3
2019-05-23T12:00:15.849Z,1002.2
2019-05-23T12:01:20.795Z,1002.3
2019-05-23T12:02:17.272Z,1002.3
2019-05-23T12:03:17.977Z,1002.2
2019-05-23T12:04:18.681Z,1002.2
2019-05-23T12:05:19.389Z,1002.2
2019-05-23T12:06:20.099Z,1002.2
2019-05-23T12:07:20.795Z,1002.2
2019-05-23T12:08:21.514Z,1002.2
2019-05-23T12:09:22.173Z,1002.2
2019-05-23T12:10:23.021Z,1002.2
2019-05-23T12:11:23.603Z,1002.2
2019-05-23T12:12:24.319Z,1002.2
2019-05-23T12:13:25.024Z,1002.1
2019-05-23T12:14:25.805Z,1002.1
2019-05-23T12:15:26.509Z,1002.2
2019-05-23T12:16:27.219Z,1002.1
2019-05-23T12:17:27.918Z,1002.1
2019-05-23T12:18:28.643Z,1002.1
2019-05-23T12:19:29.368Z,1002.1
2019-05-23T12:20:30.062Z,1002.1
2019-05-23T12:21:30.763Z,1002.1
2019-05-23T12:22:31.459Z,1002.1
2019-05-23T12:23:32.154Z,1002.1
2019-05-23T12:24:35.607Z,1002.1
2019-05-23T12:25:33.562Z,1002.1
2019-05-23T12:26:34.267Z,1002.1
2019-05-23T12:27:34.970Z,1002.1
2019-05-23T12:28:35.676Z,1002.1
2019-05-23T12:29:36.381Z,1002.0
2019-05-23T12:30:37.107Z,1002.0
2019-05-23T12:31:37.804Z,1002.0
2019-05-23T12:32:38.495Z,1002.1
2019-05-23T12:33:39.198Z,1002.1
2019-05-23T12:34:39.875Z,1002.0
2019-05-23T12:35:40.612Z,1002.0
2019-05-23T12:36:41.289Z,1002.0